sensor_id;sensor_type;location;lat;lon;timestamp;temperature;humidity
20574;DHT22;10445;50.216;7.912;2023-06-10T00:01:53;17.90;5.00
20574;DHT22;10445;50.216;7.912;2023-06-10T00:04:45;17.90;5.30
20574;DHT22;10445;50.216;7.912;2023-06-10T00:07:35;17.90;5.80
20574;DHT22;10445;50.216;7.912;2023-06-10T00:10:25;17.80;6.00
20574;DHT22;10445;50.216;7.912;2023-06-10T00:13:15;17.80;6.30
20574;DHT22;10445;50.216;7.912;2023-06-10T00:16:04;17.70;7.00
20574;DHT22;10445;50.216;7.912;2023-06-10T00:18:53;17.70;6.70
20574;DHT22;10445;50.216;7.912;2023-06-10T00:21:48;17.70;6.50
20574;DHT22;10445;50.216;7.912;2023-06-10T00:24:40;17.70;6.40
20574;DHT22;10445;50.216;7.912;2023-06-10T00:27:30;17.70;5.60
20574;DHT22;10445;50.216;7.912;2023-06-10T00:30:25;17.80;4.90
20574;DHT22;10445;50.216;7.912;2023-06-10T00:33:15;17.90;4.40
20574;DHT22;10445;50.216;7.912;2023-06-10T00:36:05;17.90;3.70
20574;DHT22;10445;50.216;7.912;2023-06-10T00:38:55;17.90;3.00
20574;DHT22;10445;50.216;7.912;2023-06-10T00:41:44;18.00;2.70
20574;DHT22;10445;50.216;7.912;2023-06-10T00:44:34;17.90;3.00
20574;DHT22;10445;50.216;7.912;2023-06-10T00:47:25;17.90;3.00
20574;DHT22;10445;50.216;7.912;2023-06-10T00:50:15;17.90;3.20
20574;DHT22;10445;50.216;7.912;2023-06-10T00:53:05;17.80;3.20
20574;DHT22;10445;50.216;7.912;2023-06-10T00:55:55;17.80;4.00
20574;DHT22;10445;50.216;7.912;2023-06-10T00:58:45;17.70;4.30
20574;DHT22;10445;50.216;7.912;2023-06-10T01:01:36;17.70;4.20
20574;DHT22;10445;50.216;7.912;2023-06-10T01:04:29;17.70;4.00
20574;DHT22;10445;50.216;7.912;2023-06-10T01:07:24;17.70;4.40
20574;DHT22;10445;50.216;7.912;2023-06-10T01:10:21;17.70;4.30
20574;DHT22;10445;50.216;7.912;2023-06-10T01:13:13;17.70;4.10
20574;DHT22;10445;50.216;7.912;2023-06-10T01:16:05;17.60;4.40
20574;DHT22;10445;50.216;7.912;2023-06-10T01:18:55;17.60;4.70
20574;DHT22;10445;50.216;7.912;2023-06-10T01:21:47;17.60;4.60
20574;DHT22;10445;50.216;7.912;2023-06-10T01:24:38;17.60;4.60
20574;DHT22;10445;50.216;7.912;2023-06-10T01:27:33;17.50;5.10
20574;DHT22;10445;50.216;7.912;2023-06-10T01:30:29;17.50;5.60
20574;DHT22;10445;50.216;7.912;2023-06-10T01:33:26;17.40;5.60
20574;DHT22;10445;50.216;7.912;2023-06-10T01:36:18;17.40;5.80
20574;DHT22;10445;50.216;7.912;2023-06-10T01:39:11;17.40;5.60
20574;DHT22;10445;50.216;7.912;2023-06-10T01:42:03;17.40;5.60
20574;DHT22;10445;50.216;7.912;2023-06-10T01:44:54;17.40;5.80
20574;DHT22;10445;50.216;7.912;2023-06-10T01:47:44;17.40;5.80
20574;DHT22;10445;50.216;7.912;2023-06-10T01:50:35;17.40;5.90
20574;DHT22;10445;50.216;7.912;2023-06-10T01:53:25;17.30;5.70
20574;DHT22;10445;50.216;7.912;2023-06-10T01:56:17;17.30;5.60
20574;DHT22;10445;50.216;7.912;2023-06-10T01:59:07;17.30;5.00
20574;DHT22;10445;50.216;7.912;2023-06-10T02:01:58;17.30;4.50
20574;DHT22;10445;50.216;7.912;2023-06-10T02:04:48;17.30;4.00
20574;DHT22;10445;50.216;7.912;2023-06-10T02:07:38;17.30;4.10
20574;DHT22;10445;50.216;7.912;2023-06-10T02:10:28;17.30;3.10
20574;DHT22;10445;50.216;7.912;2023-06-10T02:13:20;17.30;2.80
20574;DHT22;10445;50.216;7.912;2023-06-10T02:16:11;17.30;2.80
20574;DHT22;10445;50.216;7.912;2023-06-10T02:19:02;17.30;2.80
20574;DHT22;10445;50.216;7.912;2023-06-10T02:21:55;17.30;3.00
20574;DHT22;10445;50.216;7.912;2023-06-10T02:24:46;17.20;3.60
20574;DHT22;10445;50.216;7.912;2023-06-10T02:27:36;17.20;4.30
20574;DHT22;10445;50.216;7.912;2023-06-10T02:30:29;17.10;4.50
20574;DHT22;10445;50.216;7.912;2023-06-10T02:33:19;17.10;4.90
20574;DHT22;10445;50.216;7.912;2023-06-10T02:36:10;17.10;5.20
20574;DHT22;10445;50.216;7.912;2023-06-10T02:39:01;17.00;5.50
20574;DHT22;10445;50.216;7.912;2023-06-10T02:41:53;17.00;6.00
20574;DHT22;10445;50.216;7.912;2023-06-10T02:44:43;16.90;6.50
20574;DHT22;10445;50.216;7.912;2023-06-10T02:47:38;16.90;6.90
20574;DHT22;10445;50.216;7.912;2023-06-10T02:50:29;16.90;7.20
20574;DHT22;10445;50.216;7.912;2023-06-10T02:53:20;16.90;7.30
20574;DHT22;10445;50.216;7.912;2023-06-10T02:56:16;16.90;7.60
20574;DHT22;10445;50.216;7.912;2023-06-10T02:59:07;16.90;7.00
20574;DHT22;10445;50.216;7.912;2023-06-10T03:02:12;16.80;6.80
20574;DHT22;10445;50.216;7.912;2023-06-10T03:05:05;16.80;7.00
20574;DHT22;10445;50.216;7.912;2023-06-10T03:08:00;16.80;7.20
20574;DHT22;10445;50.216;7.912;2023-06-10T03:10:55;16.80;7.10
20574;DHT22;10445;50.216;7.912;2023-06-10T03:13:48;16.80;6.90
20574;DHT22;10445;50.216;7.912;2023-06-10T03:16:39;16.80;6.90
20574;DHT22;10445;50.216;7.912;2023-06-10T03:19:38;16.80;7.20
20574;DHT22;10445;50.216;7.912;2023-06-10T03:22:46;16.70;7.70
20574;DHT22;10445;50.216;7.912;2023-06-10T03:25:43;16.70;8.00
20574;DHT22;10445;50.216;7.912;2023-06-10T03:32:40;16.70;8.60
20574;DHT22;10445;50.216;7.912;2023-06-10T03:35:40;16.70;9.00
20574;DHT22;10445;50.216;7.912;2023-06-10T03:38:37;16.70;9.20
20574;DHT22;10445;50.216;7.912;2023-06-10T03:41:40;16.70;9.60
20574;DHT22;10445;50.216;7.912;2023-06-10T03:44:38;16.70;9.50
20574;DHT22;10445;50.216;7.912;2023-06-10T03:47:56;16.70;9.60
20574;DHT22;10445;50.216;7.912;2023-06-10T03:50:49;16.70;9.90
20574;DHT22;10445;50.216;7.912;2023-06-10T03:53:43;16.70;10.10
20574;DHT22;10445;50.216;7.912;2023-06-10T03:56:36;16.60;10.40
20574;DHT22;10445;50.216;7.912;2023-06-10T03:59:29;16.60;10.50
20574;DHT22;10445;50.216;7.912;2023-06-10T04:02:20;16.60;10.70
20574;DHT22;10445;50.216;7.912;2023-06-10T04:05:13;16.60;11.10
20574;DHT22;10445;50.216;7.912;2023-06-10T04:08:18;16.60;11.20
20574;DHT22;10445;50.216;7.912;2023-06-10T04:11:15;16.60;12.00
20574;DHT22;10445;50.216;7.912;2023-06-10T04:14:07;16.50;12.10
20574;DHT22;10445;50.216;7.912;2023-06-10T04:17:17;16.50;12.40
20574;DHT22;10445;50.216;7.912;2023-06-10T04:20:18;16.50;12.80
20574;DHT22;10445;50.216;7.912;2023-06-10T04:23:18;16.60;12.60
20574;DHT22;10445;50.216;7.912;2023-06-10T04:26:10;16.50;12.80
20574;DHT22;10445;50.216;7.912;2023-06-10T04:29:06;16.50;12.60
20574;DHT22;10445;50.216;7.912;2023-06-10T04:32:13;16.60;13.20
20574;DHT22;10445;50.216;7.912;2023-06-10T04:35:05;16.60;12.90
20574;DHT22;10445;50.216;7.912;2023-06-10T04:37:57;16.70;13.10
20574;DHT22;10445;50.216;7.912;2023-06-10T04:40:48;16.70;12.80
20574;DHT22;10445;50.216;7.912;2023-06-10T04:43:38;16.70;12.40
20574;DHT22;10445;50.216;7.912;2023-06-10T04:46:30;16.80;12.20
20574;DHT22;10445;50.216;7.912;2023-06-10T04:49:21;16.80;12.30
20574;DHT22;10445;50.216;7.912;2023-06-10T04:52:12;16.80;12.60
20574;DHT22;10445;50.216;7.912;2023-06-10T04:55:06;16.80;12.50
20574;DHT22;10445;50.216;7.912;2023-06-10T04:57:57;16.90;13.20
20574;DHT22;10445;50.216;7.912;2023-06-10T05:00:48;16.90;13.10
20574;DHT22;10445;50.216;7.912;2023-06-10T05:03:40;17.00;12.80
20574;DHT22;10445;50.216;7.912;2023-06-10T05:06:31;17.00;12.40
20574;DHT22;10445;50.216;7.912;2023-06-10T05:09:22;17.10;11.80
20574;DHT22;10445;50.216;7.912;2023-06-10T05:12:13;17.10;11.90
20574;DHT22;10445;50.216;7.912;2023-06-10T05:15:03;17.10;11.40
20574;DHT22;10445;50.216;7.912;2023-06-10T05:17:56;17.20;11.40
20574;DHT22;10445;50.216;7.912;2023-06-10T05:20:49;17.20;11.50
20574;DHT22;10445;50.216;7.912;2023-06-10T05:23:42;17.30;11.30
20574;DHT22;10445;50.216;7.912;2023-06-10T05:26:32;17.30;10.90
20574;DHT22;10445;50.216;7.912;2023-06-10T05:29:25;17.40;10.70
20574;DHT22;10445;50.216;7.912;2023-06-10T05:32:16;17.40;10.30
20574;DHT22;10445;50.216;7.912;2023-06-10T05:35:06;17.50;10.20
20574;DHT22;10445;50.216;7.912;2023-06-10T05:37:59;17.60;10.30
20574;DHT22;10445;50.216;7.912;2023-06-10T05:40:50;17.70;9.60
20574;DHT22;10445;50.216;7.912;2023-06-10T05:43:40;17.80;8.80
20574;DHT22;10445;50.216;7.912;2023-06-10T05:46:29;18.00;9.20
20574;DHT22;10445;50.216;7.912;2023-06-10T05:49:19;18.10;8.20
20574;DHT22;10445;50.216;7.912;2023-06-10T05:52:08;18.30;6.80
20574;DHT22;10445;50.216;7.912;2023-06-10T05:54:58;18.50;5.90
20574;DHT22;10445;50.216;7.912;2023-06-10T05:57:48;18.60;4.60
20574;DHT22;10445;50.216;7.912;2023-06-10T06:00:46;18.80;2.80
20574;DHT22;10445;50.216;7.912;2023-06-10T06:03:36;18.90;3.00
20574;DHT22;10445;50.216;7.912;2023-06-10T06:06:26;19.00;1.90
20574;DHT22;10445;50.216;7.912;2023-06-10T06:09:17;19.10;1.40
20574;DHT22;10445;50.216;7.912;2023-06-10T06:12:09;19.10;2.10
20574;DHT22;10445;50.216;7.912;2023-06-10T06:14:58;19.30;1.10
20574;DHT22;10445;50.216;7.912;2023-06-10T06:17:47;19.40;1.40
20574;DHT22;10445;50.216;7.912;2023-06-10T06:20:36;19.60;1.00
20574;DHT22;10445;50.216;7.912;2023-06-10T06:23:25;19.70;1.00
20574;DHT22;10445;50.216;7.912;2023-06-10T06:26:14;19.80;1.00
20574;DHT22;10445;50.216;7.912;2023-06-10T06:29:05;19.80;1.00
20574;DHT22;10445;50.216;7.912;2023-06-10T06:31:54;19.80;1.00
20574;DHT22;10445;50.216;7.912;2023-06-10T06:34:43;19.90;1.00
20574;DHT22;10445;50.216;7.912;2023-06-10T06:37:32;19.90;1.00
20574;DHT22;10445;50.216;7.912;2023-06-10T06:40:22;20.00;1.00
20574;DHT22;10445;50.216;7.912;2023-06-10T06:43:10;20.10;1.00
20574;DHT22;10445;50.216;7.912;2023-06-10T06:46:01;20.10;1.00
20574;DHT22;10445;50.216;7.912;2023-06-10T06:48:51;20.10;1.00
20574;DHT22;10445;50.216;7.912;2023-06-10T06:51:40;20.00;1.00
20574;DHT22;10445;50.216;7.912;2023-06-10T06:54:30;20.10;1.00
20574;DHT22;10445;50.216;7.912;2023-06-10T06:57:19;20.10;1.00
20574;DHT22;10445;50.216;7.912;2023-06-10T07:00:08;20.20;1.00
20574;DHT22;10445;50.216;7.912;2023-06-10T07:02:59;20.40;1.00
20574;DHT22;10445;50.216;7.912;2023-06-10T07:05:48;20.40;1.00
20574;DHT22;10445;50.216;7.912;2023-06-10T07:08:37;20.30;1.00
20574;DHT22;10445;50.216;7.912;2023-06-10T07:11:26;20.40;1.00
20574;DHT22;10445;50.216;7.912;2023-06-10T07:14:14;20.50;1.00
20574;DHT22;10445;50.216;7.912;2023-06-10T07:17:03;20.60;1.00
20574;DHT22;10445;50.216;7.912;2023-06-10T07:19:53;21.00;1.00
20574;DHT22;10445;50.216;7.912;2023-06-10T07:22:44;21.10;1.00
20574;DHT22;10445;50.216;7.912;2023-06-10T07:25:33;21.10;1.00
20574;DHT22;10445;50.216;7.912;2023-06-10T07:28:22;21.20;1.00
20574;DHT22;10445;50.216;7.912;2023-06-10T07:31:11;21.10;1.00
20574;DHT22;10445;50.216;7.912;2023-06-10T07:34:00;21.10;1.00
20574;DHT22;10445;50.216;7.912;2023-06-10T07:42:14;21.10;1.00
20574;DHT22;10445;50.216;7.912;2023-06-10T07:45:03;21.20;1.00
20574;DHT22;10445;50.216;7.912;2023-06-10T07:47:53;21.30;1.00
20574;DHT22;10445;50.216;7.912;2023-06-10T07:50:43;21.30;1.00
20574;DHT22;10445;50.216;7.912;2023-06-10T07:53:32;21.30;1.00
20574;DHT22;10445;50.216;7.912;2023-06-10T07:56:20;21.40;1.00
20574;DHT22;10445;50.216;7.912;2023-06-10T07:59:11;21.50;1.00
20574;DHT22;10445;50.216;7.912;2023-06-10T08:01:59;21.70;1.00
20574;DHT22;10445;50.216;7.912;2023-06-10T08:04:48;21.80;1.00
20574;DHT22;10445;50.216;7.912;2023-06-10T08:07:37;21.90;1.00
20574;DHT22;10445;50.216;7.912;2023-06-10T08:10:27;22.00;1.00
20574;DHT22;10445;50.216;7.912;2023-06-10T08:13:16;22.10;1.00
20574;DHT22;10445;50.216;7.912;2023-06-10T08:16:06;22.00;1.00
20574;DHT22;10445;50.216;7.912;2023-06-10T08:18:55;22.10;1.00
20574;DHT22;10445;50.216;7.912;2023-06-10T08:21:43;22.30;1.00
20574;DHT22;10445;50.216;7.912;2023-06-10T08:24:33;22.40;1.00
20574;DHT22;10445;50.216;7.912;2023-06-10T08:27:21;22.50;1.00
20574;DHT22;10445;50.216;7.912;2023-06-10T08:30:11;22.50;1.00
20574;DHT22;10445;50.216;7.912;2023-06-10T08:33:02;22.60;1.00
20574;DHT22;10445;50.216;7.912;2023-06-10T08:35:51;22.80;1.00
20574;DHT22;10445;50.216;7.912;2023-06-10T08:38:39;22.80;1.00
20574;DHT22;10445;50.216;7.912;2023-06-10T08:41:30;22.80;1.00
20574;DHT22;10445;50.216;7.912;2023-06-10T08:44:28;22.90;1.00
20574;DHT22;10445;50.216;7.912;2023-06-10T08:47:17;23.00;1.00
20574;DHT22;10445;50.216;7.912;2023-06-10T08:50:08;23.10;1.00
20574;DHT22;10445;50.216;7.912;2023-06-10T08:52:59;23.10;1.00
20574;DHT22;10445;50.216;7.912;2023-06-10T08:55:51;23.20;1.00
20574;DHT22;10445;50.216;7.912;2023-06-10T08:58:41;23.30;1.00
20574;DHT22;10445;50.216;7.912;2023-06-10T09:01:30;23.40;1.00
20574;DHT22;10445;50.216;7.912;2023-06-10T09:04:19;23.50;1.00
20574;DHT22;10445;50.216;7.912;2023-06-10T09:07:10;23.60;1.00
20574;DHT22;10445;50.216;7.912;2023-06-10T09:09:59;23.80;1.00
20574;DHT22;10445;50.216;7.912;2023-06-10T09:12:50;23.80;1.00
20574;DHT22;10445;50.216;7.912;2023-06-10T09:15:39;24.00;1.00
20574;DHT22;10445;50.216;7.912;2023-06-10T09:18:30;24.00;1.00
20574;DHT22;10445;50.216;7.912;2023-06-10T09:21:19;24.00;1.00
20574;DHT22;10445;50.216;7.912;2023-06-10T09:24:09;24.10;1.00
20574;DHT22;10445;50.216;7.912;2023-06-10T09:27:05;24.20;1.00
20574;DHT22;10445;50.216;7.912;2023-06-10T09:29:54;24.20;1.00
20574;DHT22;10445;50.216;7.912;2023-06-10T09:32:45;24.20;1.00
20574;DHT22;10445;50.216;7.912;2023-06-10T09:35:35;24.30;1.00
20574;DHT22;10445;50.216;7.912;2023-06-10T09:38:29;24.50;1.00
20574;DHT22;10445;50.216;7.912;2023-06-10T09:41:20;24.60;1.00
20574;DHT22;10445;50.216;7.912;2023-06-10T09:44:12;24.80;1.00
20574;DHT22;10445;50.216;7.912;2023-06-10T09:47:01;24.90;1.00
20574;DHT22;10445;50.216;7.912;2023-06-10T09:49:50;25.00;1.00
20574;DHT22;10445;50.216;7.912;2023-06-10T09:52:40;25.00;1.00
20574;DHT22;10445;50.216;7.912;2023-06-10T09:55:33;25.10;1.00
20574;DHT22;10445;50.216;7.912;2023-06-10T09:58:35;25.50;1.00
20574;DHT22;10445;50.216;7.912;2023-06-10T10:01:24;25.80;1.00
20574;DHT22;10445;50.216;7.912;2023-06-10T10:04:13;26.40;1.00
20574;DHT22;10445;50.216;7.912;2023-06-10T10:07:12;26.60;1.00
20574;DHT22;10445;50.216;7.912;2023-06-10T10:10:01;26.50;1.00
20574;DHT22;10445;50.216;7.912;2023-06-10T10:12:54;26.30;1.00
20574;DHT22;10445;50.216;7.912;2023-06-10T10:15:46;26.20;1.00
20574;DHT22;10445;50.216;7.912;2023-06-10T10:18:35;26.20;1.00
20574;DHT22;10445;50.216;7.912;2023-06-10T10:21:29;26.20;1.00
20574;DHT22;10445;50.216;7.912;2023-06-10T10:24:21;26.00;1.00
20574;DHT22;10445;50.216;7.912;2023-06-10T10:27:17;26.00;1.00
20574;DHT22;10445;50.216;7.912;2023-06-10T10:30:07;25.90;1.00
20574;DHT22;10445;50.216;7.912;2023-06-10T10:33:04;25.80;1.00
20574;DHT22;10445;50.216;7.912;2023-06-10T10:35:58;25.90;1.00
20574;DHT22;10445;50.216;7.912;2023-06-10T10:38:47;25.90;1.00
20574;DHT22;10445;50.216;7.912;2023-06-10T10:41:39;25.90;1.00
20574;DHT22;10445;50.216;7.912;2023-06-10T10:44:28;26.00;1.00
20574;DHT22;10445;50.216;7.912;2023-06-10T10:47:21;26.00;1.00
20574;DHT22;10445;50.216;7.912;2023-06-10T10:50:17;26.10;1.00
20574;DHT22;10445;50.216;7.912;2023-06-10T10:53:06;26.10;1.00
20574;DHT22;10445;50.216;7.912;2023-06-10T10:56:05;25.80;1.00
20574;DHT22;10445;50.216;7.912;2023-06-10T10:59:03;25.60;1.00
20574;DHT22;10445;50.216;7.912;2023-06-10T11:01:52;25.70;1.00
20574;DHT22;10445;50.216;7.912;2023-06-10T11:04:45;25.80;1.00
20574;DHT22;10445;50.216;7.912;2023-06-10T11:07:36;25.90;1.00
20574;DHT22;10445;50.216;7.912;2023-06-10T11:10:31;25.80;1.00
20574;DHT22;10445;50.216;7.912;2023-06-10T11:13:21;25.90;1.00
20574;DHT22;10445;50.216;7.912;2023-06-10T11:16:10;26.20;1.00
20574;DHT22;10445;50.216;7.912;2023-06-10T11:18:59;26.40;1.00
20574;DHT22;10445;50.216;7.912;2023-06-10T11:22:00;26.20;1.00
20574;DHT22;10445;50.216;7.912;2023-06-10T11:24:51;26.50;1.00
20574;DHT22;10445;50.216;7.912;2023-06-10T11:27:40;26.50;1.00
20574;DHT22;10445;50.216;7.912;2023-06-10T11:30:34;26.10;1.00
20574;DHT22;10445;50.216;7.912;2023-06-10T11:33:25;26.20;1.00
20574;DHT22;10445;50.216;7.912;2023-06-10T11:36:14;26.60;1.00
20574;DHT22;10445;50.216;7.912;2023-06-10T11:39:05;26.60;1.00
20574;DHT22;10445;50.216;7.912;2023-06-10T11:41:55;26.60;1.00
20574;DHT22;10445;50.216;7.912;2023-06-10T11:44:48;26.90;1.00
20574;DHT22;10445;50.216;7.912;2023-06-10T11:47:37;27.00;1.00
20574;DHT22;10445;50.216;7.912;2023-06-10T11:50:31;27.00;1.00
20574;DHT22;10445;50.216;7.912;2023-06-10T11:53:19;26.70;1.00
20574;DHT22;10445;50.216;7.912;2023-06-10T11:56:08;26.70;1.00
20574;DHT22;10445;50.216;7.912;2023-06-10T11:59:00;26.60;1.00
20574;DHT22;10445;50.216;7.912;2023-06-10T12:01:51;26.80;1.00
20574;DHT22;10445;50.216;7.912;2023-06-10T12:04:40;27.00;1.00
20574;DHT22;10445;50.216;7.912;2023-06-10T12:07:29;27.10;1.00
20574;DHT22;10445;50.216;7.912;2023-06-10T12:10:18;26.90;1.00
20574;DHT22;10445;50.216;7.912;2023-06-10T12:13:14;26.60;1.00
20574;DHT22;10445;50.216;7.912;2023-06-10T12:16:08;27.00;1.00
20574;DHT22;10445;50.216;7.912;2023-06-10T12:19:02;27.40;1.00
20574;DHT22;10445;50.216;7.912;2023-06-10T12:21:51;27.40;1.00
20574;DHT22;10445;50.216;7.912;2023-06-10T12:24:44;27.00;1.00
20574;DHT22;10445;50.216;7.912;2023-06-10T12:27:34;26.80;1.00
20574;DHT22;10445;50.216;7.912;2023-06-10T12:30:24;26.80;1.00
20574;DHT22;10445;50.216;7.912;2023-06-10T12:33:18;27.00;1.00
20574;DHT22;10445;50.216;7.912;2023-06-10T12:36:16;27.30;1.00
20574;DHT22;10445;50.216;7.912;2023-06-10T12:39:05;27.10;1.00
20574;DHT22;10445;50.216;7.912;2023-06-10T12:41:54;26.80;1.00
20574;DHT22;10445;50.216;7.912;2023-06-10T12:44:43;26.30;1.00
20574;DHT22;10445;50.216;7.912;2023-06-10T12:47:33;26.10;1.00
20574;DHT22;10445;50.216;7.912;2023-06-10T12:50:25;26.50;1.00
20574;DHT22;10445;50.216;7.912;2023-06-10T12:53:13;26.80;1.00
20574;DHT22;10445;50.216;7.912;2023-06-10T12:56:02;26.80;1.00
20574;DHT22;10445;50.216;7.912;2023-06-10T12:58:51;26.60;1.00
20574;DHT22;10445;50.216;7.912;2023-06-10T13:01:40;26.60;1.00
20574;DHT22;10445;50.216;7.912;2023-06-10T13:04:29;26.90;1.00
20574;DHT22;10445;50.216;7.912;2023-06-10T13:07:19;27.10;1.00
20574;DHT22;10445;50.216;7.912;2023-06-10T13:10:11;27.20;1.00
20574;DHT22;10445;50.216;7.912;2023-06-10T13:13:01;27.00;1.00
20574;DHT22;10445;50.216;7.912;2023-06-10T13:15:53;27.00;1.00
20574;DHT22;10445;50.216;7.912;2023-06-10T13:18:42;27.10;1.00
20574;DHT22;10445;50.216;7.912;2023-06-10T13:21:32;27.00;1.00
20574;DHT22;10445;50.216;7.912;2023-06-10T13:24:22;27.10;1.00
20574;DHT22;10445;50.216;7.912;2023-06-10T13:27:12;27.10;1.00
20574;DHT22;10445;50.216;7.912;2023-06-10T13:30:01;27.30;1.00
20574;DHT22;10445;50.216;7.912;2023-06-10T13:32:54;27.50;1.00
20574;DHT22;10445;50.216;7.912;2023-06-10T13:35:43;27.60;1.00
20574;DHT22;10445;50.216;7.912;2023-06-10T13:38:32;27.30;1.00
20574;DHT22;10445;50.216;7.912;2023-06-10T13:41:22;27.30;1.00
20574;DHT22;10445;50.216;7.912;2023-06-10T13:44:12;27.40;1.00
20574;DHT22;10445;50.216;7.912;2023-06-10T13:47:00;27.40;1.00
20574;DHT22;10445;50.216;7.912;2023-06-10T13:49:49;27.50;1.00
20574;DHT22;10445;50.216;7.912;2023-06-10T13:52:38;27.70;1.00
20574;DHT22;10445;50.216;7.912;2023-06-10T13:55:27;28.00;1.00
20574;DHT22;10445;50.216;7.912;2023-06-10T13:58:17;28.00;1.00
20574;DHT22;10445;50.216;7.912;2023-06-10T14:01:06;28.00;1.00
20574;DHT22;10445;50.216;7.912;2023-06-10T14:03:55;27.90;1.00
20574;DHT22;10445;50.216;7.912;2023-06-10T14:06:44;27.70;1.00
20574;DHT22;10445;50.216;7.912;2023-06-10T14:09:33;27.60;1.00
20574;DHT22;10445;50.216;7.912;2023-06-10T14:12:22;27.50;1.00
20574;DHT22;10445;50.216;7.912;2023-06-10T14:15:12;27.50;1.00
20574;DHT22;10445;50.216;7.912;2023-06-10T14:18:02;27.60;1.00
20574;DHT22;10445;50.216;7.912;2023-06-10T14:20:51;27.60;1.00
20574;DHT22;10445;50.216;7.912;2023-06-10T14:23:40;27.80;1.00
20574;DHT22;10445;50.216;7.912;2023-06-10T14:26:31;27.80;1.00
20574;DHT22;10445;50.216;7.912;2023-06-10T14:29:20;27.90;1.00
20574;DHT22;10445;50.216;7.912;2023-06-10T14:32:11;27.90;1.00
20574;DHT22;10445;50.216;7.912;2023-06-10T14:35:02;27.90;1.00
20574;DHT22;10445;50.216;7.912;2023-06-10T14:37:52;27.90;1.00
20574;DHT22;10445;50.216;7.912;2023-06-10T14:40:42;27.90;1.00
20574;DHT22;10445;50.216;7.912;2023-06-10T14:43:32;28.00;1.00
20574;DHT22;10445;50.216;7.912;2023-06-10T14:46:22;28.10;1.00
20574;DHT22;10445;50.216;7.912;2023-06-10T14:49:13;28.30;1.00
20574;DHT22;10445;50.216;7.912;2023-06-10T14:52:04;28.30;1.00
20574;DHT22;10445;50.216;7.912;2023-06-10T14:54:53;28.20;1.00
20574;DHT22;10445;50.216;7.912;2023-06-10T14:57:42;28.30;1.00
20574;DHT22;10445;50.216;7.912;2023-06-10T15:00:31;28.00;1.00
20574;DHT22;10445;50.216;7.912;2023-06-10T15:03:19;28.10;1.00
20574;DHT22;10445;50.216;7.912;2023-06-10T15:06:10;28.20;1.00
20574;DHT22;10445;50.216;7.912;2023-06-10T15:08:59;28.20;1.00
20574;DHT22;10445;50.216;7.912;2023-06-10T15:11:47;28.00;1.00
20574;DHT22;10445;50.216;7.912;2023-06-10T15:14:36;28.00;1.00
20574;DHT22;10445;50.216;7.912;2023-06-10T15:17:25;27.80;1.00
20574;DHT22;10445;50.216;7.912;2023-06-10T15:20:14;27.80;1.00
20574;DHT22;10445;50.216;7.912;2023-06-10T15:23:04;28.10;1.00
20574;DHT22;10445;50.216;7.912;2023-06-10T15:25:55;28.40;1.00
20574;DHT22;10445;50.216;7.912;2023-06-10T15:28:44;28.30;1.00
20574;DHT22;10445;50.216;7.912;2023-06-10T15:31:33;28.30;1.00
20574;DHT22;10445;50.216;7.912;2023-06-10T15:34:22;27.90;1.00
20574;DHT22;10445;50.216;7.912;2023-06-10T15:37:11;27.80;1.00
20574;DHT22;10445;50.216;7.912;2023-06-10T15:40:01;27.80;1.00
20574;DHT22;10445;50.216;7.912;2023-06-10T15:42:50;27.90;1.00
20574;DHT22;10445;50.216;7.912;2023-06-10T15:45:39;27.90;1.00
20574;DHT22;10445;50.216;7.912;2023-06-10T15:48:27;27.70;1.00
20574;DHT22;10445;50.216;7.912;2023-06-10T15:51:16;27.70;1.00
20574;DHT22;10445;50.216;7.912;2023-06-10T15:54:05;27.70;1.00
20574;DHT22;10445;50.216;7.912;2023-06-10T15:56:55;27.50;1.00
20574;DHT22;10445;50.216;7.912;2023-06-10T15:59:44;27.50;1.00
20574;DHT22;10445;50.216;7.912;2023-06-10T16:02:33;27.30;1.00
20574;DHT22;10445;50.216;7.912;2023-06-10T16:05:24;27.00;1.00
20574;DHT22;10445;50.216;7.912;2023-06-10T16:08:13;26.60;1.00
20574;DHT22;10445;50.216;7.912;2023-06-10T16:11:02;26.30;1.00
20574;DHT22;10445;50.216;7.912;2023-06-10T16:13:52;26.20;1.00
20574;DHT22;10445;50.216;7.912;2023-06-10T16:16:41;26.20;1.00
20574;DHT22;10445;50.216;7.912;2023-06-10T16:19:30;26.20;1.00
20574;DHT22;10445;50.216;7.912;2023-06-10T16:22:19;26.20;1.00
20574;DHT22;10445;50.216;7.912;2023-06-10T16:25:08;26.10;1.00
20574;DHT22;10445;50.216;7.912;2023-06-10T16:27:58;26.10;1.00
20574;DHT22;10445;50.216;7.912;2023-06-10T16:30:48;26.00;1.00
20574;DHT22;10445;50.216;7.912;2023-06-10T16:33:37;26.10;1.00
20574;DHT22;10445;50.216;7.912;2023-06-10T16:36:26;26.10;1.00
20574;DHT22;10445;50.216;7.912;2023-06-10T16:39:15;26.30;1.00
20574;DHT22;10445;50.216;7.912;2023-06-10T16:42:05;26.30;1.00
20574;DHT22;10445;50.216;7.912;2023-06-10T16:44:54;26.30;1.00
20574;DHT22;10445;50.216;7.912;2023-06-10T16:47:44;26.40;1.00
20574;DHT22;10445;50.216;7.912;2023-06-10T16:50:33;26.30;1.00
20574;DHT22;10445;50.216;7.912;2023-06-10T16:53:22;26.30;1.00
20574;DHT22;10445;50.216;7.912;2023-06-10T16:56:11;26.30;1.00
20574;DHT22;10445;50.216;7.912;2023-06-10T16:59:00;26.40;1.00
20574;DHT22;10445;50.216;7.912;2023-06-10T17:01:48;26.30;1.00
20574;DHT22;10445;50.216;7.912;2023-06-10T17:04:39;26.30;1.00
20574;DHT22;10445;50.216;7.912;2023-06-10T17:07:27;26.20;1.00
20574;DHT22;10445;50.216;7.912;2023-06-10T17:10:17;26.20;1.00
20574;DHT22;10445;50.216;7.912;2023-06-10T17:13:06;26.10;1.00
20574;DHT22;10445;50.216;7.912;2023-06-10T17:15:55;26.00;1.00
20574;DHT22;10445;50.216;7.912;2023-06-10T17:18:44;26.00;1.00
20574;DHT22;10445;50.216;7.912;2023-06-10T17:21:34;26.00;1.00
20574;DHT22;10445;50.216;7.912;2023-06-10T17:24:23;25.90;1.00
20574;DHT22;10445;50.216;7.912;2023-06-10T17:27:14;25.90;1.00
20574;DHT22;10445;50.216;7.912;2023-06-10T17:30:04;25.80;1.00
20574;DHT22;10445;50.216;7.912;2023-06-10T17:32:53;25.80;1.00
20574;DHT22;10445;50.216;7.912;2023-06-10T17:35:42;25.70;1.00
20574;DHT22;10445;50.216;7.912;2023-06-10T17:38:32;25.70;1.00
20574;DHT22;10445;50.216;7.912;2023-06-10T17:41:21;25.70;1.00
20574;DHT22;10445;50.216;7.912;2023-06-10T17:44:09;25.60;1.00
20574;DHT22;10445;50.216;7.912;2023-06-10T17:46:59;25.60;1.00
20574;DHT22;10445;50.216;7.912;2023-06-10T17:49:48;25.50;1.00
20574;DHT22;10445;50.216;7.912;2023-06-10T17:52:37;25.40;1.00
20574;DHT22;10445;50.216;7.912;2023-06-10T17:55:27;25.30;1.00
20574;DHT22;10445;50.216;7.912;2023-06-10T17:58:16;25.30;1.00
20574;DHT22;10445;50.216;7.912;2023-06-10T18:01:05;25.30;1.00
20574;DHT22;10445;50.216;7.912;2023-06-10T18:03:54;25.20;1.00
20574;DHT22;10445;50.216;7.912;2023-06-10T18:06:46;25.20;1.00
20574;DHT22;10445;50.216;7.912;2023-06-10T18:09:35;25.10;1.00
20574;DHT22;10445;50.216;7.912;2023-06-10T18:12:25;25.10;1.00
20574;DHT22;10445;50.216;7.912;2023-06-10T18:15:14;25.00;1.00
20574;DHT22;10445;50.216;7.912;2023-06-10T18:18:03;24.90;1.00
20574;DHT22;10445;50.216;7.912;2023-06-10T18:20:52;24.80;1.00
20574;DHT22;10445;50.216;7.912;2023-06-10T18:23:41;24.70;1.00
20574;DHT22;10445;50.216;7.912;2023-06-10T18:26:29;24.50;1.00